createdAt,value
2018-06-09T00:00:12.370Z,6.03
2018-06-09T00:01:48.350Z,6.67
2018-06-09T00:03:24.294Z,6.80
2018-06-09T00:05:00.236Z,6.50
2018-06-09T00:06:36.220Z,6.60
2018-06-09T00:08:14.309Z,6.83
2018-06-09T00:09:50.261Z,6.70
2018-06-09T00:11:26.237Z,7.07
2018-06-09T00:13:02.370Z,6.70
2018-06-09T00:14:38.321Z,6.40
2018-06-09T00:16:14.411Z,6.70
2018-06-09T00:17:50.427Z,6.60
2018-06-09T00:19:26.368Z,6.77
2018-06-09T00:21:02.327Z,6.30
2018-06-09T00:22:38.381Z,6.80
2018-06-09T00:24:14.379Z,6.37
2018-06-09T00:25:50.324Z,6.43
2018-06-09T00:27:26.312Z,6.43
2018-06-09T00:29:02.329Z,6.40
2018-06-09T00:30:38.287Z,7.50
2018-06-09T00:32:14.213Z,7.93
2018-06-09T00:33:58.084Z,6.70
2018-06-09T00:35:34.148Z,6.87
2018-06-09T00:37:10.076Z,6.67
2018-06-09T00:38:46.129Z,6.97
2018-06-09T00:40:22.148Z,6.67
2018-06-09T00:41:58.091Z,6.80
2018-06-09T00:43:34.302Z,7.30
2018-06-09T00:45:10.342Z,6.87
2018-06-09T00:46:46.362Z,6.93
2018-06-09T00:48:22.346Z,6.80
2018-06-09T00:49:59.411Z,7.20
2018-06-09T00:51:35.368Z,7.33
2018-06-09T00:53:11.421Z,7.17
2018-06-09T00:54:47.392Z,7.00
2018-06-09T00:56:40.425Z,6.87
2018-06-09T00:58:16.380Z,7.40
2018-06-09T00:59:52.313Z,7.30
2018-06-09T01:01:28.508Z,7.23
2018-06-09T01:03:04.530Z,7.53
2018-06-09T01:04:40.648Z,6.90
2018-06-09T01:06:16.996Z,7.27
2018-06-09T01:07:53.039Z,7.40
2018-06-09T01:09:29.000Z,6.97
2018-06-09T01:11:04.943Z,7.13
2018-06-09T01:12:40.950Z,7.17
2018-06-09T01:14:16.887Z,6.50
2018-06-09T01:15:52.817Z,6.70
2018-06-09T01:17:29.014Z,7.23
2018-06-09T01:19:04.986Z,7.30
2018-06-09T01:20:40.995Z,7.20
2018-06-09T01:22:17.451Z,6.70
2018-06-09T01:23:53.488Z,7.30
2018-06-09T01:25:29.493Z,7.73
2018-06-09T01:27:05.500Z,6.97
2018-06-09T01:28:41.508Z,6.90
2018-06-09T01:30:17.465Z,7.10
2018-06-09T01:31:53.750Z,7.00
2018-06-09T01:33:29.702Z,6.70
2018-06-09T01:35:05.800Z,6.60
2018-06-09T01:36:41.772Z,6.47
2018-06-09T01:38:17.719Z,6.97
2018-06-09T01:39:53.696Z,6.63
2018-06-09T01:41:29.923Z,7.10
2018-06-09T01:43:06.119Z,7.27
2018-06-09T01:44:42.092Z,7.20
2018-06-09T01:46:18.103Z,6.83
2018-06-09T01:47:54.166Z,7.20
2018-06-09T01:49:30.142Z,7.07
2018-06-09T01:51:06.071Z,6.53
2018-06-09T01:52:42.111Z,7.10
2018-06-09T01:54:18.084Z,7.23
2018-06-09T01:55:54.232Z,7.13
2018-06-09T01:57:30.304Z,7.33
2018-06-09T01:59:06.232Z,7.50
2018-06-09T02:00:42.348Z,6.90
2018-06-09T02:02:18.275Z,7.70
2018-06-09T02:03:54.212Z,7.67
2018-06-09T02:05:30.267Z,7.20
2018-06-09T02:07:06.241Z,7.57
2018-06-09T02:08:42.231Z,7.03
2018-06-09T02:10:18.204Z,7.13
2018-06-09T02:11:54.315Z,7.80
2018-06-09T02:13:30.266Z,7.07
2018-06-09T02:15:07.167Z,7.40
2018-06-09T02:16:43.152Z,7.10
2018-06-09T02:18:19.140Z,8.63
2018-06-09T02:19:55.099Z,8.27
2018-06-09T02:21:31.156Z,7.33
2018-06-09T02:23:07.403Z,7.83
2018-06-09T02:24:43.392Z,7.57
2018-06-09T02:26:19.507Z,7.70
2018-06-09T02:27:55.627Z,8.13
2018-06-09T02:29:31.601Z,7.20
2018-06-09T02:31:07.603Z,7.83
2018-06-09T02:32:43.647Z,7.90
2018-06-09T02:34:19.946Z,7.30
2018-06-09T02:35:55.919Z,7.60
2018-06-09T02:37:32.203Z,7.13
2018-06-09T02:39:09.205Z,7.10
2018-06-09T02:40:45.182Z,7.07
2018-06-09T02:42:21.265Z,7.43
2018-06-09T02:43:57.201Z,7.40
2018-06-09T02:45:33.260Z,7.93
2018-06-09T02:47:09.231Z,7.67
2018-06-09T02:48:45.318Z,7.37
2018-06-09T02:50:21.415Z,7.50
2018-06-09T02:51:57.390Z,7.63
2018-06-09T02:53:33.368Z,7.90
2018-06-09T02:55:09.405Z,7.63
2018-06-09T02:56:45.426Z,7.90
2018-06-09T02:58:21.433Z,8.50
2018-06-09T02:59:57.438Z,8.07
2018-06-09T03:01:33.449Z,7.73
2018-06-09T03:03:09.420Z,7.93
2018-06-09T03:04:45.488Z,7.60
2018-06-09T03:06:21.447Z,7.70
2018-06-09T03:07:57.507Z,8.23
2018-06-09T03:09:33.455Z,7.57
2018-06-09T03:11:09.457Z,8.30
2018-06-09T03:12:45.452Z,7.93
2018-06-09T03:14:22.295Z,8.03
2018-06-09T03:15:58.280Z,8.10
2018-06-09T03:17:34.293Z,8.37
2018-06-09T03:19:10.528Z,7.73
2018-06-09T03:20:46.671Z,8.20
2018-06-09T03:22:22.944Z,7.70
2018-06-09T03:23:58.885Z,7.63
2018-06-09T03:25:34.849Z,8.23
2018-06-09T03:27:10.802Z,8.20
2018-06-09T03:28:46.817Z,8.00
2018-06-09T03:30:22.836Z,8.33
2018-06-09T03:31:58.769Z,8.07
2018-06-09T03:33:34.811Z,7.90
2018-06-09T03:35:10.940Z,7.40
2018-06-09T03:36:47.007Z,8.70
2018-06-09T03:38:23.312Z,9.00
2018-06-09T03:39:59.309Z,8.67
2018-06-09T03:41:35.399Z,8.63
2018-06-09T03:43:11.547Z,8.10
2018-06-09T03:44:47.486Z,8.47
2018-06-09T03:46:23.430Z,7.80
2018-06-09T03:47:59.476Z,7.93
2018-06-09T03:49:35.178Z,8.23
2018-06-09T03:51:10.944Z,8.27
2018-06-09T03:52:46.906Z,8.10
2018-06-09T03:54:22.949Z,7.20
2018-06-09T03:55:58.900Z,8.07
2018-06-09T03:57:34.851Z,8.07
2018-06-09T03:59:10.945Z,8.00
2018-06-09T04:00:46.968Z,8.40
2018-06-09T04:02:23.101Z,7.97
2018-06-09T04:03:59.062Z,9.10
2018-06-09T04:05:35.038Z,8.50
2018-06-09T04:07:11.058Z,7.67
2018-06-09T04:10:37.583Z,7.40
2018-06-09T04:12:13.581Z,7.27
2018-06-09T04:13:49.551Z,7.60
2018-06-09T04:15:25.488Z,8.77
2018-06-09T04:17:01.517Z,8.67
2018-06-09T04:18:37.997Z,7.20
2018-06-09T04:20:13.980Z,7.83
2018-06-09T04:21:50.043Z,6.90
2018-06-09T04:23:26.053Z,7.17
2018-06-09T04:25:03.028Z,6.80
2018-06-09T04:26:39.012Z,7.13
2018-06-09T04:28:15.016Z,7.30
2018-06-09T04:29:50.996Z,7.33
2018-06-09T04:31:26.968Z,7.60
2018-06-09T04:33:03.302Z,7.20
2018-06-09T04:34:39.291Z,7.23
2018-06-09T04:36:15.082Z,7.30
2018-06-09T04:37:51.079Z,7.30
2018-06-09T04:39:27.083Z,6.83
2018-06-09T04:41:03.118Z,6.80
2018-06-09T04:42:39.818Z,6.63
2018-06-09T04:44:15.940Z,7.10
2018-06-09T04:45:51.916Z,7.63
2018-06-09T04:47:27.958Z,6.90
2018-06-09T04:49:04.068Z,6.93
2018-06-09T04:50:40.108Z,8.03
2018-06-09T04:52:16.431Z,8.67
2018-06-09T04:53:52.488Z,7.90
2018-06-09T04:55:28.453Z,8.53
2018-06-09T04:57:04.632Z,8.00
2018-06-09T04:58:40.622Z,8.30
2018-06-09T05:00:16.721Z,9.30
2018-06-09T05:01:52.676Z,9.07
2018-06-09T05:03:28.678Z,9.07
2018-06-09T05:05:04.634Z,8.40
2018-06-09T05:06:40.888Z,7.47
2018-06-09T05:08:16.899Z,8.10
2018-06-09T05:09:52.851Z,8.00
2018-06-09T05:11:28.813Z,8.47
2018-06-09T05:13:04.990Z,8.20
2018-06-09T05:14:40.969Z,7.80
2018-06-09T05:16:16.951Z,8.07
2018-06-09T05:17:52.911Z,7.87
2018-06-09T05:19:30.556Z,7.87
2018-06-09T05:21:07.052Z,8.73
2018-06-09T05:22:43.184Z,8.17
2018-06-09T05:24:19.185Z,8.33
2018-06-09T05:25:55.214Z,8.43
2018-06-09T05:27:31.198Z,8.07
2018-06-09T05:29:07.156Z,7.77
2018-06-09T05:30:43.257Z,8.80
2018-06-09T05:32:19.320Z,8.23
2018-06-09T05:33:55.330Z,8.23
2018-06-09T05:35:31.325Z,8.33
2018-06-09T05:37:07.447Z,8.70
2018-06-09T05:38:43.582Z,8.40
2018-06-09T05:40:19.741Z,8.30
2018-06-09T05:41:55.747Z,8.50
2018-06-09T05:43:31.743Z,7.87
2018-06-09T05:45:10.588Z,7.47
2018-06-09T05:46:46.627Z,7.17
2018-06-09T05:48:22.767Z,7.57
2018-06-09T05:49:58.874Z,7.40
2018-06-09T05:51:35.083Z,7.50
2018-06-09T05:53:11.028Z,7.50
2018-06-09T05:54:47.052Z,8.00
2018-06-09T05:56:23.092Z,7.93
2018-06-09T05:58:00.950Z,7.47
2018-06-09T05:59:36.943Z,7.50
2018-06-09T06:01:13.258Z,7.80
2018-06-09T06:02:49.343Z,7.17
2018-06-09T06:04:25.405Z,7.33
2018-06-09T06:06:01.343Z,7.37
2018-06-09T06:07:37.292Z,8.90
2018-06-09T06:09:13.304Z,8.30
2018-06-09T06:10:49.247Z,7.90
2018-06-09T06:12:25.252Z,8.60
2018-06-09T06:14:01.235Z,7.73
2018-06-09T06:15:37.304Z,7.90
2018-06-09T06:17:13.317Z,8.77
2018-06-09T06:18:49.295Z,8.43
2018-06-09T06:20:25.339Z,8.73
2018-06-09T06:22:01.359Z,8.23
2018-06-09T06:23:37.788Z,7.97
2018-06-09T06:25:15.349Z,8.80
2018-06-09T06:26:51.360Z,7.23
2018-06-09T06:28:27.497Z,7.43
2018-06-09T06:30:06.846Z,7.80
2018-06-09T06:31:42.881Z,7.73
2018-06-09T06:33:18.935Z,7.20
2018-06-09T06:34:54.923Z,7.57
2018-06-09T06:36:31.024Z,6.77
2018-06-09T06:38:07.799Z,7.03
2018-06-09T06:39:44.037Z,7.20
2018-06-09T06:41:20.148Z,6.87
2018-06-09T06:42:56.369Z,7.33
2018-06-09T06:44:32.566Z,7.23
2018-06-09T06:46:08.407Z,7.30
2018-06-09T06:47:44.349Z,6.80
2018-06-09T06:49:20.520Z,6.50
2018-06-09T06:50:56.563Z,7.67
2018-06-09T06:52:32.671Z,7.50
2018-06-09T06:54:08.917Z,6.50
2018-06-09T06:55:45.304Z,6.40
2018-06-09T06:57:21.736Z,6.70
2018-06-09T06:58:57.746Z,8.03
2018-06-09T07:00:33.546Z,6.60
2018-06-09T07:02:09.525Z,7.23
2018-06-09T07:03:45.396Z,6.77
2018-06-09T07:05:21.548Z,7.43
2018-06-09T07:06:57.691Z,7.00
2018-06-09T07:08:33.867Z,7.07
2018-06-09T07:10:09.911Z,7.30
2018-06-09T07:11:45.853Z,7.10
2018-06-09T07:13:21.893Z,7.30
2018-06-09T07:14:57.877Z,7.33
2018-06-09T07:16:33.903Z,7.23
2018-06-09T07:18:09.868Z,7.70
2018-06-09T07:19:45.603Z,8.10
2018-06-09T07:21:21.374Z,7.90
2018-06-09T07:22:57.387Z,7.97
2018-06-09T07:24:33.395Z,8.20
2018-06-09T07:26:09.326Z,9.57
2018-06-09T07:27:45.397Z,9.37
2018-06-09T07:29:21.419Z,9.57
2018-06-09T07:30:57.416Z,10.23
2018-06-09T07:32:33.541Z,7.93
2018-06-09T07:34:09.607Z,9.37
2018-06-09T07:35:45.599Z,9.47
2018-06-09T07:37:21.797Z,10.00
2018-06-09T07:38:57.850Z,10.07
2018-06-09T07:40:33.930Z,10.83
2018-06-09T07:42:09.954Z,9.07
2018-06-09T07:43:45.955Z,8.37
2018-06-09T07:45:21.980Z,9.40
2018-06-09T07:46:58.211Z,9.60
2018-06-09T07:48:34.383Z,7.33
2018-06-09T07:50:10.326Z,8.37
2018-06-09T07:51:46.331Z,7.40
2018-06-09T07:53:22.194Z,8.80
2018-06-09T07:54:57.941Z,10.97
2018-06-09T07:56:33.914Z,8.83
2018-06-09T07:58:09.877Z,8.47
2018-06-09T07:59:45.911Z,8.23
2018-06-09T08:01:22.246Z,7.83
2018-06-09T08:02:58.247Z,10.50
2018-06-09T08:04:34.229Z,8.57
2018-06-09T08:06:10.338Z,8.50
2018-06-09T08:07:46.322Z,9.10
2018-06-09T08:09:22.299Z,8.10
2018-06-09T08:10:58.258Z,8.30
2018-06-09T08:12:34.244Z,7.07
2018-06-09T08:14:10.193Z,8.97
2018-06-09T08:15:46.273Z,8.83
2018-06-09T08:17:22.415Z,7.60
2018-06-09T08:18:58.391Z,8.17
2018-06-09T08:20:34.361Z,7.17
2018-06-09T08:22:10.380Z,8.53
2018-06-09T08:23:46.374Z,8.53
2018-06-09T08:25:22.317Z,7.40
2018-06-09T08:26:58.296Z,9.17
2018-06-09T08:28:34.288Z,9.10
2018-06-09T08:30:11.323Z,8.43
2018-06-09T08:31:47.548Z,7.53
2018-06-09T08:33:23.881Z,7.60
2018-06-09T08:34:59.846Z,8.10
2018-06-09T08:36:35.910Z,8.50
2018-06-09T08:38:11.830Z,7.80
2018-06-09T08:39:47.808Z,8.50
2018-06-09T08:41:23.859Z,8.60
2018-06-09T08:42:59.907Z,8.07
2018-06-09T08:44:36.172Z,8.07
2018-06-09T08:46:12.149Z,8.33
2018-06-09T08:47:48.185Z,8.90
2018-06-09T08:49:24.225Z,8.50
2018-06-09T08:51:00.205Z,8.07
2018-06-09T08:52:36.242Z,7.90
2018-06-09T08:54:12.276Z,8.00
2018-06-09T08:55:48.289Z,8.40
2018-06-09T08:57:24.315Z,7.87
2018-06-09T08:59:00.339Z,7.30
2018-06-09T09:00:36.340Z,8.17
2018-06-09T09:02:12.354Z,7.57
2018-06-09T09:03:48.408Z,8.67
2018-06-09T09:05:24.629Z,7.17
2018-06-09T09:07:00.646Z,7.13
2018-06-09T09:08:36.357Z,6.57
2018-06-09T09:10:12.189Z,7.00
2018-06-09T09:11:48.184Z,6.60
2018-06-09T09:13:24.216Z,6.43
2018-06-09T09:15:00.372Z,6.70
2018-06-09T09:16:36.395Z,6.50
2018-06-09T09:18:12.528Z,6.57
2018-06-09T09:19:48.504Z,6.50
2018-06-09T09:21:24.490Z,7.07
2018-06-09T09:23:00.474Z,6.00
2018-06-09T09:24:36.423Z,5.90
2018-06-09T09:26:12.996Z,6.77
2018-06-09T09:27:48.990Z,6.50
2018-06-09T09:29:25.717Z,5.57
2018-06-09T09:31:01.684Z,6.33
2018-06-09T09:32:37.822Z,6.72
2018-06-09T09:34:13.797Z,6.40
2018-06-09T09:35:49.819Z,6.62
2018-06-09T09:37:25.825Z,6.60
2018-06-09T09:39:01.749Z,6.25
2018-06-09T09:40:37.756Z,6.40
2018-06-09T09:42:14.521Z,6.57
2018-06-09T09:43:50.495Z,5.67
2018-06-09T09:45:26.463Z,5.93
2018-06-09T09:47:02.453Z,6.40
2018-06-09T09:48:38.285Z,5.92
2018-06-09T09:50:14.146Z,6.22
2018-06-09T09:51:50.898Z,6.20
2018-06-09T09:53:26.852Z,5.87
2018-06-09T09:55:02.843Z,5.40
2018-06-09T09:56:38.835Z,6.08
2018-06-09T09:58:14.865Z,5.80
2018-06-09T09:59:50.818Z,6.70
2018-06-09T10:01:26.815Z,5.90
2018-06-09T10:03:02.829Z,5.60
2018-06-09T10:04:39.084Z,6.40
2018-06-09T10:06:15.134Z,6.20
2018-06-09T10:07:51.083Z,6.83
2018-06-09T10:09:27.116Z,7.00
2018-06-09T10:11:03.099Z,6.12
2018-06-09T10:12:39.086Z,6.28
2018-06-09T10:14:15.175Z,6.22
2018-06-09T10:15:51.184Z,5.83
2018-06-09T10:17:27.222Z,5.40
2018-06-09T10:19:03.331Z,5.42
2018-06-09T10:20:39.485Z,5.78
2018-06-09T10:22:15.499Z,5.08
2018-06-09T10:23:51.528Z,5.28
2018-06-09T10:25:27.544Z,4.40
2018-06-09T10:27:03.502Z,4.70
2018-06-09T10:28:42.525Z,6.10
2018-06-09T10:30:18.732Z,5.95
2018-06-09T10:31:54.763Z,5.50
2018-06-09T10:33:35.312Z,5.40
2018-06-09T10:35:11.413Z,5.00
2018-06-09T10:36:47.444Z,5.55
2018-06-09T10:38:23.453Z,5.15
2018-06-09T10:39:59.475Z,5.37
2018-06-09T10:41:35.491Z,5.55
2018-06-09T10:43:11.557Z,5.75
2018-06-09T10:44:47.532Z,5.42
2018-06-09T10:46:23.525Z,5.20
2018-06-09T10:47:59.556Z,5.47
2018-06-09T10:49:35.525Z,5.28
2018-06-09T10:51:11.457Z,5.45
2018-06-09T10:52:48.285Z,4.70
2018-06-09T10:54:24.356Z,4.53
2018-06-09T10:56:00.317Z,5.10
2018-06-09T10:57:36.364Z,5.08
2018-06-09T10:59:12.366Z,5.30
2018-06-09T11:00:48.377Z,5.33
2018-06-09T11:02:24.420Z,5.67
2018-06-09T11:04:00.424Z,5.30
2018-06-09T11:05:36.408Z,5.25
2018-06-09T11:07:12.445Z,4.70
2018-06-09T11:08:48.460Z,4.80
2018-06-09T11:10:24.907Z,4.47
2018-06-09T11:12:01.011Z,4.72
2018-06-09T11:13:37.236Z,5.03
2018-06-09T11:15:13.310Z,4.60
2018-06-09T11:16:49.354Z,5.12
2018-06-09T11:18:25.159Z,5.30
2018-06-09T11:20:00.984Z,5.40
2018-06-09T11:21:37.181Z,5.58
2018-06-09T11:23:13.246Z,5.50
2018-06-09T11:24:50.115Z,4.92
2018-06-09T11:26:26.165Z,5.67
2018-06-09T11:28:02.569Z,4.80
2018-06-09T11:29:38.615Z,4.50
2018-06-09T11:31:14.615Z,4.62
2018-06-09T11:32:50.728Z,5.90
2018-06-09T11:34:26.655Z,4.80
2018-06-09T11:36:02.854Z,5.08
2018-06-09T11:37:38.963Z,4.70
2018-06-09T11:39:14.909Z,5.55
2018-06-09T11:40:51.063Z,4.80
2018-06-09T11:42:27.217Z,4.65
2018-06-09T11:44:03.355Z,4.53
2018-06-09T11:45:39.285Z,4.33
2018-06-09T11:47:15.306Z,4.70
2018-06-09T11:48:51.310Z,4.50
2018-06-09T11:50:27.443Z,4.55
2018-06-09T11:52:03.459Z,4.12
2018-06-09T11:53:39.513Z,4.50
2018-06-09T11:55:15.565Z,4.75
2018-06-09T11:56:51.573Z,4.20
2018-06-09T11:58:28.922Z,4.28
2018-06-09T12:00:04.949Z,4.10
2018-06-09T12:01:41.142Z,4.80
2018-06-09T12:03:17.411Z,4.40
2018-06-09T12:04:53.437Z,4.03
2018-06-09T12:06:29.510Z,4.72
2018-06-09T12:08:05.555Z,4.10
2018-06-09T12:09:41.556Z,4.33
2018-06-09T12:11:17.576Z,4.20
2018-06-09T12:12:53.687Z,4.28
2018-06-09T12:14:29.884Z,4.28
2018-06-09T12:16:05.968Z,3.85
2018-06-09T12:17:41.945Z,3.52
2018-06-09T12:19:17.928Z,4.10
2018-06-09T12:20:54.040Z,3.90
2018-06-09T12:22:30.397Z,3.98
2018-06-09T12:24:06.374Z,3.70
2018-06-09T12:25:42.315Z,3.33
2018-06-09T12:27:18.332Z,4.12
2018-06-09T12:28:54.377Z,4.00
2018-06-09T12:30:30.388Z,4.40
2018-06-09T12:32:06.352Z,3.70
2018-06-09T12:33:42.375Z,4.25
2018-06-09T12:35:18.347Z,4.20
2018-06-09T12:36:54.331Z,4.80
2018-06-09T12:38:31.021Z,4.25
2018-06-09T12:40:07.106Z,4.28
2018-06-09T12:41:45.245Z,4.12
2018-06-09T12:43:22.387Z,5.05
2018-06-09T12:44:58.699Z,4.12
2018-06-09T12:46:34.841Z,4.83
2018-06-09T12:48:10.837Z,4.50
2018-06-09T12:49:46.811Z,4.60
2018-06-09T12:51:22.886Z,4.95
2018-06-09T12:52:58.797Z,4.58
2018-06-09T12:54:34.883Z,4.95
2018-06-09T12:56:10.862Z,4.72
2018-06-09T12:57:47.133Z,4.17
2018-06-09T12:59:23.446Z,4.72
2018-06-09T13:00:59.416Z,4.72
2018-06-09T13:02:35.385Z,4.60
2018-06-09T13:04:12.723Z,4.65
2018-06-09T13:05:49.022Z,4.87
2018-06-09T13:07:25.937Z,4.53
2018-06-09T13:09:01.926Z,4.55
2018-06-09T13:10:38.528Z,4.60
2018-06-09T13:12:14.876Z,4.97
2018-06-09T13:13:50.946Z,5.03
2018-06-09T13:15:27.771Z,4.08
2018-06-09T13:17:10.470Z,4.20
2018-06-09T13:18:46.411Z,3.80
2018-06-09T13:20:22.424Z,4.00
2018-06-09T13:22:00.176Z,3.47
2018-06-09T13:23:37.265Z,3.42
2018-06-09T13:25:13.600Z,3.83
2018-06-09T13:26:49.640Z,4.37
2018-06-09T13:28:26.461Z,3.80
2018-06-09T13:30:02.470Z,4.25
2018-06-09T13:31:38.611Z,4.00
2018-06-09T13:33:14.967Z,4.00
2018-06-09T13:34:50.922Z,4.00
2018-06-09T13:36:27.347Z,3.92
2018-06-09T13:38:03.349Z,4.20
2018-06-09T13:39:39.571Z,4.30
2018-06-09T13:41:17.137Z,4.00
2018-06-09T13:42:53.225Z,4.15
2018-06-09T13:44:29.464Z,3.90
2018-06-09T13:46:05.433Z,4.17
2018-06-09T13:47:41.457Z,4.22
2018-06-09T13:49:17.477Z,4.47
2018-06-09T13:50:59.343Z,4.35
2018-06-09T13:52:35.319Z,4.37
2018-06-09T13:54:11.488Z,4.75
2018-06-09T13:55:47.479Z,4.95
2018-06-09T13:57:23.669Z,4.53
2018-06-09T13:58:59.673Z,4.00
2018-06-09T14:00:35.655Z,4.03
2018-06-09T14:02:11.612Z,4.50
2018-06-09T14:03:47.586Z,4.47
2018-06-09T14:05:23.944Z,4.33
2018-06-09T14:06:59.944Z,3.95
2018-06-09T14:08:36.191Z,4.42
2018-06-09T14:10:12.296Z,4.55
2018-06-09T14:11:48.612Z,4.55
2018-06-09T14:13:24.634Z,4.50
2018-06-09T14:15:00.713Z,4.90
2018-06-09T14:16:37.125Z,3.95
2018-06-09T14:18:13.276Z,4.42
2018-06-09T14:19:49.222Z,4.83
2018-06-09T14:21:25.221Z,5.10
2018-06-09T14:23:01.212Z,5.10
2018-06-09T14:24:37.171Z,4.90
2018-06-09T14:26:13.408Z,4.60
2018-06-09T14:27:49.814Z,4.58
2018-06-09T14:29:26.111Z,4.40
2018-06-09T14:31:02.115Z,4.13
2018-06-09T14:32:38.590Z,4.22
2018-06-09T14:34:14.588Z,3.80
2018-06-09T14:35:50.628Z,4.20
2018-06-09T14:37:26.640Z,4.60
2018-06-09T14:39:02.638Z,4.22
2018-06-09T14:40:38.632Z,4.20
2018-06-09T14:42:14.403Z,4.47
2018-06-09T14:43:51.406Z,4.15
2018-06-09T14:45:27.784Z,4.47
2018-06-09T14:47:05.464Z,4.83
2018-06-09T14:48:41.671Z,4.28
2018-06-09T14:50:18.034Z,4.92
2018-06-09T14:51:54.607Z,4.08
2018-06-09T14:53:31.506Z,4.15
2018-06-09T14:55:07.960Z,4.08
2018-06-09T14:56:44.038Z,4.20
2018-06-09T14:58:20.937Z,4.40
2018-06-09T14:59:57.439Z,4.42
2018-06-09T15:01:34.194Z,4.65
2018-06-09T15:03:10.521Z,4.70
2018-06-09T15:04:47.123Z,5.03
2018-06-09T15:06:27.772Z,4.58
2018-06-09T15:08:04.502Z,4.78
2018-06-09T15:09:40.485Z,5.40
2018-06-09T15:11:16.935Z,4.12
2018-06-09T15:12:54.033Z,4.50
2018-06-09T15:14:34.505Z,4.35
2018-06-09T15:16:12.875Z,4.12
2018-06-09T15:17:50.018Z,4.80
2018-06-09T15:19:26.699Z,4.50
2018-06-09T15:21:02.902Z,4.05
2018-06-09T15:22:40.487Z,4.55
2018-06-09T15:24:17.855Z,4.67
2018-06-09T15:26:01.069Z,4.92
2018-06-09T15:27:44.826Z,5.60
2018-06-09T15:29:22.184Z,5.42
2018-06-09T15:31:00.528Z,5.70
2018-06-09T15:32:38.414Z,5.17
2018-06-09T15:34:17.811Z,5.25
2018-06-09T15:35:55.065Z,5.90
2018-06-09T15:37:39.157Z,6.25
2018-06-09T15:39:25.095Z,6.50
2018-06-09T15:41:08.895Z,6.15
2018-06-09T15:42:56.896Z,4.87
2018-06-09T15:44:35.304Z,5.78
2018-06-09T15:46:20.451Z,5.10
2018-06-09T15:48:05.121Z,5.08
2018-06-09T15:49:41.777Z,5.00
2018-06-09T15:51:29.055Z,5.12
2018-06-09T15:53:14.904Z,5.28
2018-06-09T15:55:07.230Z,5.05
2018-06-09T15:58:31.760Z,4.78
2018-06-09T16:03:56.955Z,4.58
2018-06-09T16:07:25.410Z,4.42
2018-06-09T16:09:08.407Z,4.72
2018-06-09T16:12:35.770Z,4.50
2018-06-09T16:14:13.014Z,4.75
2018-06-09T16:15:49.241Z,4.75
2018-06-09T16:17:27.274Z,4.60
2018-06-09T16:19:04.614Z,4.65
2018-06-09T16:20:41.130Z,4.67
2018-06-09T16:22:17.857Z,5.10
2018-06-09T16:23:53.940Z,4.80
2018-06-09T16:25:30.493Z,5.17
2018-06-09T16:27:07.168Z,4.55
2018-06-09T16:28:43.255Z,4.50
2018-06-09T16:30:19.741Z,4.85
2018-06-09T16:31:55.931Z,4.67
2018-06-09T16:33:31.921Z,5.00
2018-06-09T16:35:07.908Z,5.33
2018-06-09T16:36:43.993Z,4.75
2018-06-09T16:38:20.810Z,5.33
2018-06-09T16:39:56.849Z,4.73
2018-06-09T16:41:32.904Z,5.42
2018-06-09T16:43:08.924Z,5.00
2018-06-09T16:44:44.924Z,4.70
2018-06-09T16:46:21.273Z,4.92
2018-06-09T16:47:57.570Z,4.33
2018-06-09T16:49:34.289Z,4.50
2018-06-09T16:51:10.493Z,5.60
2018-06-09T16:52:46.538Z,4.87
2018-06-09T16:54:22.681Z,4.67
2018-06-09T16:55:58.652Z,4.80
2018-06-09T16:57:34.515Z,4.55
2018-06-09T16:59:10.539Z,4.60
2018-06-09T17:00:48.077Z,4.40
2018-06-09T17:02:24.385Z,4.55
2018-06-09T17:04:01.572Z,4.50
2018-06-09T17:05:38.006Z,4.58
2018-06-09T17:07:18.415Z,4.47
2018-06-09T17:08:54.306Z,4.47
2018-06-09T17:10:30.288Z,4.33
2018-06-09T17:12:11.762Z,4.60
2018-06-09T17:13:47.712Z,4.58
2018-06-09T17:15:23.591Z,4.70
2018-06-09T17:16:59.609Z,4.37
2018-06-09T17:18:38.361Z,4.08
2018-06-09T17:20:15.635Z,4.50
2018-06-09T17:21:54.877Z,4.42
2018-06-09T17:23:31.460Z,4.42
2018-06-09T17:25:08.086Z,4.60
2018-06-09T17:26:44.880Z,4.53
2018-06-09T17:28:21.384Z,4.15
2018-06-09T17:29:58.656Z,4.28
2018-06-09T17:31:35.985Z,4.40
2018-06-09T17:33:14.272Z,4.62
2018-06-09T17:34:52.063Z,4.30
2018-06-09T17:36:32.681Z,4.03
2018-06-09T17:38:13.680Z,5.00
2018-06-09T17:39:53.854Z,5.10
2018-06-09T17:41:34.677Z,4.92
2018-06-09T17:45:00.695Z,5.45
2018-06-09T17:46:36.913Z,6.15
2018-06-09T17:48:13.928Z,6.17
2018-06-09T17:49:50.352Z,5.47
2018-06-09T17:51:31.486Z,5.25
2018-06-09T17:53:07.904Z,4.58
2018-06-09T17:54:43.935Z,5.55
2018-06-09T17:56:21.343Z,4.97
2018-06-09T17:57:59.144Z,5.00
2018-06-09T17:59:36.284Z,4.83
2018-06-09T18:01:13.544Z,4.70
2018-06-09T18:02:50.739Z,4.92
2018-06-09T18:04:26.869Z,4.92
2018-06-09T18:06:03.885Z,5.00
2018-06-09T18:07:40.514Z,4.60
2018-06-09T18:09:17.273Z,4.40
2018-06-09T18:10:54.388Z,5.03
2018-06-09T18:12:30.812Z,4.37
2018-06-09T18:14:07.176Z,5.10
2018-06-09T18:15:43.917Z,4.60
2018-06-09T18:17:22.116Z,5.00
2018-06-09T18:19:01.283Z,5.47
2018-06-09T18:20:37.767Z,5.08
2018-06-09T18:22:14.963Z,5.25
2018-06-09T18:23:57.879Z,4.63
2018-06-09T18:25:34.526Z,5.60
2018-06-09T18:27:11.277Z,4.90
2018-06-09T18:28:47.425Z,4.97
2018-06-09T18:30:24.733Z,4.78
2018-06-09T18:32:02.333Z,4.70
2018-06-09T18:33:40.962Z,4.83
2018-06-09T18:35:19.072Z,4.97
2018-06-09T18:36:57.737Z,5.33
2018-06-09T18:38:35.405Z,5.10
2018-06-09T18:40:11.542Z,5.23
2018-06-09T18:41:47.595Z,4.80
2018-06-09T18:43:25.594Z,5.10
2018-06-09T18:45:03.095Z,5.13
2018-06-09T18:46:40.396Z,5.17
2018-06-09T18:48:16.837Z,5.00
2018-06-09T18:49:53.056Z,4.93
2018-06-09T18:51:29.088Z,5.33
2018-06-09T18:53:05.184Z,5.20
2018-06-09T18:54:41.508Z,5.20
2018-06-09T18:56:17.979Z,5.10
2018-06-09T18:57:54.297Z,4.97
2018-06-09T18:59:30.593Z,4.90
2018-06-09T19:01:06.802Z,4.57
2018-06-09T19:02:44.083Z,5.40
2018-06-09T19:04:26.371Z,5.33
2018-06-09T19:06:03.104Z,5.40
2018-06-09T19:07:40.651Z,5.23
2018-06-09T19:11:00.226Z,5.90
2018-06-09T19:12:36.881Z,5.43
2018-06-09T19:14:20.130Z,6.83
2018-06-09T19:15:59.216Z,6.13
2018-06-09T19:17:36.995Z,6.70
2018-06-09T19:19:15.618Z,6.30
2018-06-09T19:20:56.098Z,6.43
2018-06-09T19:24:22.964Z,6.30
2018-06-09T19:25:59.601Z,6.20
2018-06-09T19:27:42.207Z,6.73
2018-06-09T19:29:19.246Z,6.80
2018-06-09T19:30:58.735Z,6.17
2018-06-09T19:32:45.119Z,6.63
2018-06-09T19:34:22.618Z,6.40
2018-06-09T19:36:00.039Z,5.30
2018-06-09T19:41:58.977Z,4.23
2018-06-09T19:43:49.017Z,3.37
2018-06-09T19:47:33.641Z,3.77
2018-06-09T19:49:10.150Z,4.07
2018-06-09T19:50:46.770Z,3.80
2018-06-09T19:52:23.833Z,3.93
2018-06-09T19:54:00.727Z,4.03
2018-06-09T19:55:38.540Z,3.53
2018-06-09T19:57:15.576Z,3.53
2018-06-09T19:58:58.074Z,3.67
2018-06-09T20:00:34.851Z,3.63
2018-06-09T20:02:12.571Z,3.60
2018-06-09T20:03:49.018Z,3.60
2018-06-09T20:05:26.263Z,3.30
2018-06-09T20:07:07.846Z,3.70
2018-06-09T20:08:44.952Z,3.67
2018-06-09T20:10:21.205Z,4.07
2018-06-09T20:11:57.356Z,5.17
2018-06-09T20:13:33.539Z,6.87
2018-06-09T20:15:10.068Z,5.73
2018-06-09T20:16:46.928Z,4.90
2018-06-09T20:18:25.460Z,4.00
2018-06-09T20:20:02.665Z,3.80
2018-06-09T20:21:40.438Z,4.57
2018-06-09T20:23:22.272Z,4.00
2018-06-09T20:24:59.135Z,4.83
2018-06-09T20:26:36.331Z,4.67
2018-06-09T20:28:13.712Z,4.03
2018-06-09T20:29:50.208Z,3.20
2018-06-09T20:31:27.006Z,4.03
2018-06-09T20:33:03.120Z,3.20
2018-06-09T20:34:39.218Z,3.20
2018-06-09T20:36:15.555Z,3.23
2018-06-09T20:37:51.690Z,3.47
2018-06-09T20:39:28.877Z,3.80
2018-06-09T20:41:04.950Z,3.30
2018-06-09T20:42:41.023Z,3.43
2018-06-09T20:44:17.165Z,3.23
2018-06-09T20:45:54.074Z,3.30
2018-06-09T20:47:30.741Z,3.20
2018-06-09T20:49:06.785Z,3.40
2018-06-09T20:50:43.127Z,2.90
2018-06-09T20:52:19.298Z,3.20
2018-06-09T20:53:55.577Z,2.80
2018-06-09T20:55:32.261Z,2.70
2018-06-09T20:57:09.106Z,2.77
2018-06-09T20:58:50.501Z,2.90
2018-06-09T21:00:27.968Z,2.40
2018-06-09T21:02:04.151Z,2.70
2018-06-09T21:03:40.339Z,2.60
2018-06-09T21:05:16.640Z,3.10
2018-06-09T21:06:53.662Z,2.87
2018-06-09T21:08:32.172Z,3.00
2018-06-09T21:10:08.530Z,3.30
2018-06-09T21:11:44.836Z,3.20
2018-06-09T21:13:21.322Z,3.10
2018-06-09T21:14:58.231Z,2.87
2018-06-09T21:16:34.850Z,3.27
2018-06-09T21:18:11.624Z,3.13
2018-06-09T21:19:48.317Z,3.10
2018-06-09T21:21:24.469Z,2.50
2018-06-09T21:23:01.201Z,2.50
2018-06-09T21:24:38.181Z,2.80
2018-06-09T21:26:16.401Z,3.00
2018-06-09T21:27:57.744Z,2.90
2018-06-09T21:29:39.146Z,2.97
2018-06-09T21:31:18.547Z,2.90
2018-06-09T21:33:24.502Z,2.77
2018-06-09T21:35:22.817Z,2.70
2018-06-09T21:37:03.028Z,2.90
2018-06-09T21:38:45.916Z,2.80
2018-06-09T21:40:25.217Z,3.03
2018-06-09T21:42:07.498Z,2.93
2018-06-09T21:43:49.190Z,2.60
2018-06-09T21:45:30.749Z,3.00
2018-06-09T21:47:07.268Z,2.70
2018-06-09T21:48:43.774Z,3.07
2018-06-09T21:50:25.680Z,2.77